createdAt,value
2023-04-10T00:00:14.316Z,8.70
2023-04-10T00:02:42.788Z,7.93
2023-04-10T00:05:11.324Z,9.50
2023-04-10T00:07:39.210Z,9.23
2023-04-10T00:10:06.867Z,9.55
2023-04-10T00:12:44.615Z,9.60
2023-04-10T00:15:11.979Z,8.95
2023-04-10T00:17:39.325Z,9.05
2023-04-10T00:20:07.590Z,9.15
2023-04-10T00:22:43.906Z,9.18
2023-04-10T00:25:11.152Z,9.93
2023-04-10T00:27:40.779Z,9.48
2023-04-10T00:30:08.848Z,10.43
2023-04-10T00:32:56.028Z,9.45
2023-04-10T00:35:23.320Z,10.82
2023-04-10T00:37:51.231Z,10.00
2023-04-10T00:40:18.442Z,11.57
2023-04-10T00:42:48.066Z,13.20
2023-04-10T00:45:15.383Z,11.55
2023-04-10T00:47:47.250Z,10.95
2023-04-10T00:50:14.603Z,10.90
2023-04-10T00:52:42.817Z,11.13
2023-04-10T00:55:10.453Z,11.73
2023-04-10T00:57:37.855Z,13.07
2023-04-10T01:00:05.746Z,12.15
2023-04-10T01:02:35.881Z,13.10
2023-04-10T01:05:04.021Z,13.50
2023-04-10T01:07:44.734Z,12.18
2023-04-10T01:10:20.807Z,11.82
2023-04-10T01:13:23.287Z,11.82
2023-04-10T01:16:09.284Z,12.52
2023-04-10T01:18:44.339Z,11.18
2023-04-10T01:21:11.728Z,11.55
2023-04-10T01:24:10.720Z,11.70
2023-04-10T01:27:05.730Z,11.52
2023-04-10T01:29:33.172Z,11.18
2023-04-10T01:32:15.553Z,10.82
2023-04-10T01:34:47.955Z,11.93
2023-04-10T01:37:17.873Z,11.18
2023-04-10T01:39:45.131Z,11.38
2023-04-10T01:42:12.334Z,10.85
2023-04-10T01:44:42.063Z,12.60
2023-04-10T01:47:09.377Z,11.63
2023-04-10T01:49:37.554Z,11.93
2023-04-10T01:52:05.042Z,12.45
2023-04-10T01:54:32.970Z,12.23
2023-04-10T01:57:00.597Z,12.43
2023-04-10T01:59:27.912Z,11.93
2023-04-10T02:02:01.675Z,12.52
2023-04-10T02:04:29.563Z,12.80
2023-04-10T02:07:03.629Z,12.00
2023-04-10T02:09:36.219Z,11.40
2023-04-10T02:12:07.289Z,13.13
2023-04-10T02:14:37.141Z,11.07
2023-04-10T02:17:05.415Z,10.90
2023-04-10T02:19:32.662Z,12.07
2023-04-10T02:22:05.055Z,11.27
2023-04-10T02:24:32.471Z,12.43
2023-04-10T02:26:59.718Z,12.10
2023-04-10T02:29:29.542Z,11.55
2023-04-10T02:31:56.852Z,12.35
2023-04-10T02:34:24.074Z,12.20
2023-04-10T02:36:51.393Z,11.30
2023-04-10T02:39:18.664Z,11.90
2023-04-10T02:41:46.544Z,11.32
2023-04-10T02:44:14.193Z,12.10
2023-04-10T02:46:42.102Z,12.32
2023-04-10T02:49:09.491Z,11.98
2023-04-10T02:51:37.219Z,14.70
2023-04-10T02:54:04.612Z,16.88
2023-04-10T02:56:34.727Z,18.02
2023-04-10T02:59:02.198Z,17.90
2023-04-10T03:01:29.990Z,17.88
2023-04-10T03:03:58.617Z,16.42
2023-04-10T03:06:31.369Z,15.30
2023-04-10T03:08:58.863Z,14.88
2023-04-10T03:11:26.098Z,15.48
2023-04-10T03:13:54.895Z,14.90
2023-04-10T03:16:22.834Z,15.25
2023-04-10T03:18:50.095Z,17.15
2023-04-10T03:21:21.947Z,14.10
2023-04-10T03:23:49.676Z,13.63
2023-04-10T03:26:16.917Z,14.90
2023-04-10T03:28:44.237Z,13.18
2023-04-10T03:31:12.603Z,12.73
2023-04-10T03:33:40.337Z,13.95
2023-04-10T03:36:08.408Z,11.95
2023-04-10T03:38:35.890Z,12.07
2023-04-10T03:41:03.214Z,12.73
2023-04-10T03:43:31.620Z,13.80
2023-04-10T03:45:58.924Z,13.15
2023-04-10T03:48:28.369Z,13.05
2023-04-10T03:50:56.016Z,12.90
2023-04-10T03:53:24.117Z,14.40
2023-04-10T03:55:54.387Z,13.55
2023-04-10T04:00:50.349Z,13.55
2023-04-10T04:03:18.311Z,13.48
2023-04-10T04:05:46.179Z,14.23
2023-04-10T04:08:14.098Z,14.43
2023-04-10T04:10:41.609Z,14.45
2023-04-10T04:13:10.375Z,13.45
2023-04-10T04:15:38.828Z,15.07
2023-04-10T04:18:06.340Z,14.27
2023-04-10T04:20:41.603Z,13.95
2023-04-10T04:23:10.006Z,13.07
2023-04-10T04:25:37.390Z,14.73
2023-04-10T04:28:06.402Z,15.02
2023-04-10T04:30:35.346Z,14.57
2023-04-10T04:33:02.859Z,16.02
2023-04-10T04:35:31.277Z,15.43
2023-04-10T04:37:58.884Z,14.88
2023-04-10T04:40:29.820Z,14.60
2023-04-10T04:42:57.054Z,14.55
2023-04-10T04:45:24.872Z,14.23
2023-04-10T04:47:52.263Z,14.80
2023-04-10T04:50:19.626Z,13.35
2023-04-10T04:52:46.987Z,14.15
2023-04-10T04:55:18.624Z,13.60
2023-04-10T04:57:45.902Z,14.85
2023-04-10T05:00:13.534Z,15.10
2023-04-10T05:02:42.169Z,17.08
2023-04-10T05:05:09.763Z,17.90
2023-04-10T05:07:37.068Z,17.40
2023-04-10T05:10:06.460Z,16.55
2023-04-10T05:12:34.089Z,16.15
2023-04-10T05:15:01.815Z,16.50
2023-04-10T05:17:29.120Z,16.60
2023-04-10T05:19:56.896Z,15.48
2023-04-10T05:22:24.545Z,15.60
2023-04-10T05:24:55.099Z,15.35
2023-04-10T05:27:22.511Z,12.95
2023-04-10T05:29:49.721Z,14.13
2023-04-10T05:32:17.067Z,14.25
2023-04-10T05:34:44.396Z,12.95
2023-04-10T05:37:13.104Z,12.23
2023-04-10T05:39:40.439Z,11.93
2023-04-10T05:42:07.949Z,12.45
2023-04-10T05:44:35.922Z,11.70
2023-04-10T05:47:03.195Z,11.50
2023-04-10T05:49:30.631Z,12.93
2023-04-10T05:51:57.879Z,11.98
2023-04-10T05:54:25.254Z,11.77
2023-04-10T05:56:52.675Z,12.13
2023-04-10T05:59:19.933Z,12.02
2023-04-10T06:01:47.447Z,11.77
2023-04-10T06:04:17.567Z,11.98
2023-04-10T06:06:45.630Z,11.30
2023-04-10T06:09:13.876Z,10.75
2023-04-10T06:11:42.656Z,9.07
2023-04-10T06:14:09.861Z,10.77
2023-04-10T06:16:41.084Z,8.38
2023-04-10T06:19:09.291Z,8.02
2023-04-10T06:21:36.576Z,8.75
2023-04-10T06:24:04.031Z,9.07
2023-04-10T06:26:32.532Z,8.15
2023-04-10T06:29:00.459Z,9.52
2023-04-10T06:31:28.206Z,9.70
2023-04-10T06:33:55.732Z,7.22
2023-04-10T06:36:22.946Z,7.18
2023-04-10T06:38:50.680Z,7.57
2023-04-10T06:41:18.202Z,6.82
2023-04-10T06:43:50.432Z,7.25
2023-04-10T06:46:17.979Z,6.78
2023-04-10T06:48:45.992Z,6.25
2023-04-10T06:51:13.542Z,5.20
2023-04-10T06:53:40.982Z,5.82
2023-04-10T06:56:17.110Z,6.22
2023-04-10T06:58:48.031Z,5.90
2023-04-10T07:01:17.806Z,5.28
2023-04-10T07:03:45.424Z,4.70
2023-04-10T07:06:14.107Z,4.30
2023-04-10T07:11:23.253Z,4.70
2023-04-10T07:13:53.949Z,4.15
2023-04-10T07:16:21.496Z,4.20
2023-04-10T07:18:49.203Z,4.10
2023-04-10T07:21:16.535Z,2.92
2023-04-10T07:23:57.152Z,3.30
2023-04-10T07:26:25.907Z,3.15
2023-04-10T07:28:53.426Z,3.28
2023-04-10T07:31:21.711Z,2.92
2023-04-10T07:33:49.053Z,2.90
2023-04-10T07:36:16.665Z,2.92
2023-04-10T07:38:44.687Z,2.58
2023-04-10T07:41:12.348Z,3.72
2023-04-10T07:43:42.594Z,2.60
2023-04-10T07:46:10.302Z,3.42
2023-04-10T07:48:37.701Z,2.83
2023-04-10T07:51:09.211Z,4.20
2023-04-10T07:53:38.553Z,3.80
2023-04-10T07:56:06.427Z,2.92
2023-04-10T07:58:34.327Z,3.35
2023-04-10T08:01:02.146Z,4.75
2023-04-10T08:03:29.754Z,3.38
2023-04-10T08:05:57.103Z,3.60
2023-04-10T08:08:24.301Z,3.42
2023-04-10T08:10:52.038Z,4.40
2023-04-10T08:13:19.685Z,3.90
2023-04-10T08:15:46.917Z,2.95
2023-04-10T08:18:17.038Z,3.30
2023-04-10T08:20:44.669Z,3.03
2023-04-10T08:23:19.850Z,3.80
2023-04-10T08:25:48.189Z,4.45
2023-04-10T08:28:16.881Z,4.45
2023-04-10T08:30:44.202Z,3.00
2023-04-10T08:33:12.071Z,5.18
2023-04-10T08:35:39.539Z,2.83
2023-04-10T08:40:37.910Z,3.58
2023-04-10T08:43:12.160Z,4.78
2023-04-10T08:45:41.294Z,3.70
2023-04-10T08:48:09.181Z,3.05
2023-04-10T08:50:41.195Z,3.50
2023-04-10T08:53:13.342Z,3.92
2023-04-10T08:55:44.358Z,3.80
2023-04-10T08:58:13.770Z,4.78
2023-04-10T09:00:41.220Z,6.45
2023-04-10T09:03:14.276Z,4.47
2023-04-10T09:05:42.529Z,6.70
2023-04-10T09:08:10.905Z,4.15
2023-04-10T09:10:42.090Z,3.83
2023-04-10T09:13:09.513Z,8.10
2023-04-10T09:15:55.664Z,4.55
2023-04-10T09:18:50.792Z,6.30
2023-04-10T09:21:20.256Z,7.00
2023-04-10T09:23:48.106Z,4.35
2023-04-10T09:26:24.564Z,3.20
2023-04-10T09:28:58.178Z,4.18
2023-04-10T09:31:46.686Z,4.93
2023-04-10T09:34:22.373Z,4.45
2023-04-10T09:36:56.999Z,4.68
2023-04-10T09:39:41.186Z,6.93
2023-04-10T09:42:08.498Z,3.10
2023-04-10T09:44:38.041Z,8.68
2023-04-10T09:47:14.569Z,3.53
2023-04-10T09:49:47.364Z,8.48
2023-04-10T09:52:19.168Z,7.57
2023-04-10T09:54:47.005Z,6.68
2023-04-10T09:57:21.088Z,11.20
2023-04-10T09:59:51.610Z,8.85
2023-04-10T10:02:19.620Z,5.47
2023-04-10T10:04:48.050Z,4.00
2023-04-10T10:07:22.498Z,5.72
2023-04-10T10:09:51.792Z,7.78
2023-04-10T10:12:31.879Z,7.07
2023-04-10T10:15:08.487Z,7.68
2023-04-10T10:17:39.725Z,4.75
2023-04-10T10:20:09.115Z,6.22
2023-04-10T10:25:15.581Z,3.92
2023-04-10T10:27:43.084Z,4.78
2023-04-10T10:30:28.862Z,13.73
2023-04-10T10:32:58.847Z,9.43
2023-04-10T10:35:31.188Z,6.50
2023-04-10T10:38:04.445Z,9.50
2023-04-10T10:40:38.860Z,3.67
2023-04-10T10:43:13.722Z,4.45
2023-04-10T10:45:45.668Z,7.10
2023-04-10T10:48:13.104Z,7.22
2023-04-10T10:50:53.934Z,6.97
2023-04-10T10:53:37.601Z,6.82
2023-04-10T10:56:23.722Z,6.43
2023-04-10T10:58:57.631Z,3.88
2023-04-10T11:01:24.978Z,4.22
2023-04-10T11:03:53.834Z,9.52
2023-04-10T11:06:22.171Z,7.35
2023-04-10T11:08:53.370Z,10.40
2023-04-10T11:11:27.701Z,6.78
2023-04-10T11:13:56.400Z,10.95
2023-04-10T11:16:33.162Z,4.72
2023-04-10T11:19:13.768Z,10.23
2023-04-10T11:24:30.069Z,6.40
2023-04-10T11:26:58.675Z,7.85
2023-04-10T11:29:28.918Z,6.07
2023-04-10T11:32:00.609Z,8.85
2023-04-10T11:34:28.981Z,6.68
2023-04-10T11:36:56.389Z,9.55
2023-04-10T11:39:23.960Z,11.60
2023-04-10T11:41:52.027Z,10.23
2023-04-10T11:44:32.255Z,10.57
2023-04-10T11:46:59.722Z,9.45
2023-04-10T11:49:29.763Z,3.40
2023-04-10T11:51:57.242Z,4.03
2023-04-10T11:54:28.754Z,6.90
2023-04-10T11:57:03.391Z,7.13
2023-04-10T11:59:31.926Z,5.07
2023-04-10T12:02:05.378Z,7.78
2023-04-10T12:04:33.454Z,6.13
2023-04-10T12:07:01.348Z,11.13
2023-04-10T12:09:29.236Z,11.30
2023-04-10T12:12:02.987Z,12.57
2023-04-10T12:14:39.715Z,7.65
2023-04-10T12:17:08.701Z,8.38
2023-04-10T12:19:52.953Z,4.82
2023-04-10T12:22:20.220Z,11.18
2023-04-10T12:24:49.900Z,7.47
2023-04-10T12:27:18.621Z,12.20
2023-04-10T12:29:46.625Z,9.23
2023-04-10T12:32:14.426Z,4.28
2023-04-10T12:34:42.480Z,3.72
2023-04-10T12:37:12.388Z,12.65
2023-04-10T12:39:40.460Z,9.80
2023-04-10T12:42:19.353Z,11.07
2023-04-10T12:44:56.494Z,8.55
2023-04-10T12:47:24.494Z,7.03
2023-04-10T12:50:12.803Z,14.88
2023-04-10T12:52:42.387Z,15.13
2023-04-10T12:55:19.828Z,8.65
2023-04-10T12:57:51.736Z,10.88
2023-04-10T13:00:19.584Z,10.20
2023-04-10T13:02:48.015Z,11.80
2023-04-10T13:05:18.374Z,10.95
2023-04-10T13:07:45.905Z,7.05
2023-04-10T13:10:13.223Z,11.43
2023-04-10T13:12:44.735Z,5.90
2023-04-10T13:15:12.397Z,9.98
2023-04-10T13:17:40.994Z,13.48
2023-04-10T13:20:15.927Z,9.38
2023-04-10T13:22:44.656Z,11.15
2023-04-10T13:25:11.868Z,10.07
2023-04-10T13:27:39.270Z,8.50
2023-04-10T13:30:09.951Z,4.75
2023-04-10T13:32:37.483Z,9.95
2023-04-10T13:35:05.109Z,11.43
2023-04-10T13:37:32.889Z,5.40
2023-04-10T13:40:00.242Z,10.00
2023-04-10T13:42:28.041Z,9.27
2023-04-10T13:44:55.306Z,9.65
2023-04-10T13:47:24.111Z,15.10
2023-04-10T13:49:51.554Z,6.68
2023-04-10T13:52:18.769Z,4.22
2023-04-10T13:54:48.694Z,5.40
2023-04-10T13:57:16.028Z,7.38
2023-04-10T13:59:44.818Z,6.25
2023-04-10T14:02:12.872Z,13.55
2023-04-10T14:04:42.672Z,12.77
2023-04-10T14:07:10.239Z,5.85
2023-04-10T14:09:38.288Z,13.00
2023-04-10T14:12:05.681Z,10.82
2023-04-10T14:14:40.875Z,11.05
2023-04-10T14:17:08.315Z,11.70
2023-04-10T14:19:36.681Z,10.60
2023-04-10T14:22:04.312Z,4.65
2023-04-10T14:24:31.673Z,13.05
2023-04-10T14:27:01.339Z,5.80
2023-04-10T14:31:59.689Z,11.30
2023-04-10T14:34:27.021Z,12.90
2023-04-10T14:36:58.999Z,11.32
2023-04-10T14:39:27.579Z,10.05
2023-04-10T14:41:54.885Z,14.35
2023-04-10T14:44:22.215Z,12.85
2023-04-10T14:46:50.186Z,12.45
2023-04-10T14:49:17.810Z,10.88
2023-04-10T14:51:48.383Z,7.40
2023-04-10T14:54:21.740Z,10.02
2023-04-10T14:56:49.337Z,4.88
2023-04-10T14:59:17.621Z,9.25
2023-04-10T15:01:45.081Z,6.47
2023-04-10T15:04:15.623Z,10.27
2023-04-10T15:06:42.969Z,11.25
2023-04-10T15:09:10.242Z,16.38
2023-04-10T15:11:38.122Z,12.93
2023-04-10T15:14:07.488Z,9.57
2023-04-10T15:16:35.060Z,9.40
2023-04-10T15:19:04.344Z,6.18
2023-04-10T15:21:32.491Z,10.00
2023-04-10T15:24:01.037Z,4.50
2023-04-10T15:26:30.758Z,5.90
2023-04-10T15:28:58.438Z,10.02
2023-04-10T15:31:25.909Z,13.23
2023-04-10T15:33:53.576Z,9.90
2023-04-10T15:36:21.418Z,9.43
2023-04-10T15:38:50.189Z,13.35
2023-04-10T15:41:17.778Z,9.60
2023-04-10T15:43:45.427Z,7.72
2023-04-10T15:46:14.152Z,18.35
2023-04-10T15:48:45.949Z,9.77
2023-04-10T15:51:13.238Z,13.60
2023-04-10T15:53:40.754Z,5.68
2023-04-10T15:56:08.309Z,10.45
2023-04-10T15:58:35.600Z,11.75
2023-04-10T16:01:03.472Z,14.48
2023-04-10T16:03:31.549Z,10.85
2023-04-10T16:06:02.233Z,6.30
2023-04-10T16:08:30.404Z,13.65
2023-04-10T16:10:57.623Z,13.30
2023-04-10T16:13:25.186Z,13.82
2023-04-10T16:15:52.860Z,9.13
2023-04-10T16:18:20.284Z,12.55
2023-04-10T16:20:48.508Z,10.30
2023-04-10T16:23:16.093Z,11.15
2023-04-10T16:25:43.485Z,8.63
2023-04-10T16:28:11.824Z,11.55
2023-04-10T16:30:40.082Z,5.80
2023-04-10T16:33:08.876Z,4.80
2023-04-10T16:35:37.073Z,7.50
2023-04-10T16:38:04.312Z,8.20
2023-04-10T16:40:33.005Z,7.68
2023-04-10T16:43:01.793Z,12.25
2023-04-10T16:45:29.329Z,7.13
2023-04-10T16:47:57.388Z,12.07
2023-04-10T16:50:24.717Z,9.90
2023-04-10T16:52:59.361Z,11.68
2023-04-10T16:55:27.517Z,12.05
2023-04-10T16:57:54.772Z,9.57
2023-04-10T17:00:22.532Z,8.55
2023-04-10T17:02:50.005Z,9.23
2023-04-10T17:05:17.542Z,9.13
2023-04-10T17:07:48.585Z,10.07
2023-04-10T17:10:16.123Z,10.80
2023-04-10T17:12:43.856Z,11.73
2023-04-10T17:15:11.552Z,10.73
2023-04-10T17:17:39.898Z,5.13
2023-04-10T17:20:09.730Z,9.65
2023-04-10T17:22:37.067Z,13.63
2023-04-10T17:25:05.847Z,9.50
2023-04-10T17:27:34.169Z,12.20
2023-04-10T17:30:12.874Z,13.10
2023-04-10T17:32:43.522Z,7.97
2023-04-10T17:35:10.869Z,12.95
2023-04-10T17:37:40.113Z,6.03
2023-04-10T17:40:07.875Z,11.25
2023-04-10T17:42:36.046Z,7.60
2023-04-10T17:45:03.557Z,7.00
2023-04-10T17:47:31.593Z,7.20
2023-04-10T17:49:58.918Z,7.05
2023-04-10T17:52:26.739Z,6.50
2023-04-10T17:55:00.415Z,10.52
2023-04-10T17:57:33.173Z,12.07
2023-04-10T18:00:00.906Z,12.15
2023-04-10T18:02:28.755Z,10.63
2023-04-10T18:04:56.342Z,13.02
2023-04-10T18:07:23.939Z,8.10
2023-04-10T18:09:51.265Z,8.95
2023-04-10T18:12:18.491Z,9.27
2023-04-10T18:14:48.785Z,11.55
2023-04-10T18:17:16.514Z,7.22
2023-04-10T18:19:43.794Z,9.38
2023-04-10T18:22:11.864Z,7.47
2023-04-10T18:24:39.122Z,6.28
2023-04-10T18:27:06.466Z,14.27
2023-04-10T18:29:34.213Z,13.73
2023-04-10T18:32:01.533Z,6.75
2023-04-10T18:34:28.852Z,14.02
2023-04-10T18:36:56.772Z,11.27
2023-04-10T18:39:24.045Z,7.95
2023-04-10T18:41:51.272Z,7.80
2023-04-10T18:44:18.685Z,6.50
2023-04-10T18:46:51.120Z,6.75
2023-04-10T18:49:21.712Z,6.25
2023-04-10T18:51:48.959Z,6.53
2023-04-10T18:54:16.268Z,6.65
2023-04-10T18:56:43.472Z,6.75
2023-04-10T18:59:17.379Z,6.45
2023-04-10T19:01:44.727Z,10.65
2023-04-10T19:04:12.099Z,10.20
2023-04-10T19:06:41.047Z,9.50
2023-04-10T19:09:11.274Z,6.35
2023-04-10T19:11:39.453Z,6.77
2023-04-10T19:14:15.426Z,6.85
2023-04-10T19:16:42.659Z,6.70
2023-04-10T19:19:10.224Z,6.57
2023-04-10T19:21:42.202Z,7.07
2023-04-10T19:24:10.073Z,6.55
2023-04-10T19:26:37.932Z,6.93
2023-04-10T19:29:05.683Z,6.35
2023-04-10T19:31:51.305Z,6.60
2023-04-10T19:34:21.599Z,6.53
2023-04-10T19:36:49.146Z,6.57
2023-04-10T19:39:16.641Z,6.15
2023-04-10T19:41:45.864Z,6.47
2023-04-10T19:44:13.298Z,6.28
2023-04-10T19:46:45.645Z,6.28
2023-04-10T19:49:13.732Z,6.35
2023-04-10T19:51:41.601Z,6.07
2023-04-10T19:54:09.405Z,5.88
2023-04-10T19:56:38.064Z,7.20
2023-04-10T19:59:08.510Z,5.55
2023-04-10T20:01:35.959Z,5.95
2023-04-10T20:04:03.452Z,6.00
2023-04-10T20:06:31.863Z,6.03
2023-04-10T20:08:59.859Z,5.57
2023-04-10T20:11:30.557Z,5.80
2023-04-10T20:13:57.899Z,5.78
2023-04-10T20:16:26.729Z,5.57
2023-04-10T20:18:55.270Z,5.85
2023-04-10T20:21:22.867Z,6.35
2023-04-10T20:23:50.988Z,5.82
2023-04-10T20:26:18.226Z,5.82
2023-04-10T20:28:45.532Z,6.22
2023-04-10T20:31:12.795Z,5.70
2023-04-10T20:33:40.973Z,5.63
2023-04-10T20:36:08.638Z,5.68
2023-04-10T20:38:36.279Z,5.82
2023-04-10T20:41:03.859Z,5.43
2023-04-10T20:43:33.717Z,5.82
2023-04-10T20:46:08.961Z,5.40
2023-04-10T20:48:38.042Z,5.85
2023-04-10T20:51:05.744Z,5.75
2023-04-10T20:53:33.764Z,5.20
2023-04-10T20:56:01.789Z,5.90
2023-04-10T20:58:30.650Z,5.43
2023-04-10T21:00:59.683Z,5.40
2023-04-10T21:03:28.197Z,5.60
2023-04-10T21:05:56.025Z,5.72
2023-04-10T21:08:23.701Z,5.35
2023-04-10T21:10:51.373Z,5.45
2023-04-10T21:13:18.632Z,4.38
2023-04-10T21:15:47.436Z,4.40
2023-04-10T21:18:14.694Z,5.00
2023-04-10T21:20:50.350Z,4.13
2023-04-10T21:23:18.602Z,4.10
2023-04-10T21:25:52.815Z,3.92
2023-04-10T21:28:21.896Z,4.78
2023-04-10T21:30:49.105Z,3.97
2023-04-10T21:33:17.280Z,4.80
2023-04-10T21:35:44.958Z,3.75
2023-04-10T21:38:12.577Z,4.50
2023-04-10T21:40:40.019Z,4.32
2023-04-10T21:43:07.279Z,4.03
2023-04-10T21:45:34.809Z,4.03
2023-04-10T21:48:02.328Z,4.80
2023-04-10T21:50:31.048Z,4.30
2023-04-10T21:53:02.161Z,4.40
2023-04-10T21:55:29.672Z,4.30
2023-04-10T21:57:57.393Z,4.53
2023-04-10T22:00:24.796Z,4.55
2023-04-10T22:02:53.004Z,4.28
2023-04-10T22:05:20.434Z,4.28
2023-04-10T22:07:47.715Z,4.10
2023-04-10T22:10:15.027Z,4.75
2023-04-10T22:12:48.633Z,5.00
2023-04-10T22:15:16.912Z,4.45
2023-04-10T22:17:44.473Z,4.43
2023-04-10T22:20:16.921Z,4.90
2023-04-10T22:22:45.342Z,5.07
2023-04-10T22:25:12.647Z,5.05
2023-04-10T22:27:48.585Z,4.90
2023-04-10T22:30:16.128Z,4.70
2023-04-10T22:32:43.443Z,4.47
2023-04-10T22:35:11.043Z,4.65
2023-04-10T22:37:38.754Z,4.43
2023-04-10T22:40:08.226Z,4.43
2023-04-10T22:42:35.690Z,4.50
2023-04-10T22:45:03.140Z,4.40
2023-04-10T22:47:30.763Z,4.35
2023-04-10T22:49:58.177Z,4.45
2023-04-10T22:52:27.065Z,4.40
2023-04-10T22:54:54.291Z,4.80
2023-04-10T22:57:21.514Z,4.25
2023-04-10T22:59:49.816Z,4.70
2023-04-10T23:02:17.243Z,4.50
2023-04-10T23:04:48.968Z,4.50
2023-04-10T23:07:16.315Z,4.72
2023-04-10T23:09:43.535Z,4.45
2023-04-10T23:12:18.084Z,4.95
2023-04-10T23:14:46.876Z,4.00
2023-04-10T23:17:14.175Z,4.80
2023-04-10T23:19:41.606Z,4.63
2023-04-10T23:22:09.623Z,4.60
2023-04-10T23:24:38.552Z,4.95
2023-04-10T23:27:12.948Z,4.32
2023-04-10T23:29:41.768Z,4.15
2023-04-10T23:32:09.065Z,4.30
2023-04-10T23:34:42.013Z,4.22
2023-04-10T23:37:09.405Z,4.38
2023-04-10T23:39:36.694Z,4.40
2023-04-10T23:42:04.124Z,4.50
2023-04-10T23:44:32.013Z,4.20
2023-04-10T23:46:59.300Z,4.78
2023-04-10T23:49:26.623Z,4.30
2023-04-10T23:51:54.163Z,4.40
2023-04-10T23:54:21.465Z,4.70
2023-04-10T23:56:48.972Z,4.85
2023-04-10T23:59:17.104Z,4.80
